トロンハイム の空港の天気 - METARとTAF

Trondheim / Vaernes ( ENVA / TRD ) - ノルウェー ヌール・トロンデラーグ県、Stjordal
飛行場実況気象(Metar)
観測時間05/28 21:50 CEST (05/28 19:50 UTC)
風向・風速西 2m/s
視程10km以上
天気現象
少しの雲 雲底高度 610m
全天の8割程度の雲 雲底高度 790m
気温12℃
湿度77%
気圧1011hPa
METARENVA 281950Z 27004KT 210V340 9999 FEW020 BKN026 12/08 Q1011 RMK WIND 670FT 05006KT
過去の天気等 Google飛行場航空写真 Wunderground天気予報

過去48時間のMETAR

飛行場予報(TAF)
発表時間: -
28日20時 CEST ~ 29日2時 CEST に一時的に
全天の8割程度の雲 雲底高度 370m
TAF ENVA 2818/2918 27008KT 9999 FEW010 BKN040
TEMPO 2818/2824 BKN012